createdAt,value
2022-07-25T00:03:35.847Z,386.32
2022-07-25T00:08:43.263Z,385.98
2022-07-25T00:13:50.462Z,386.23
2022-07-25T00:18:57.676Z,387.13
2022-07-25T00:24:05.183Z,386.47
2022-07-25T00:29:12.310Z,386.90
2022-07-25T00:34:19.589Z,387.50
2022-07-25T00:39:26.826Z,387.25
2022-07-25T00:44:34.003Z,387.70
2022-07-25T00:49:41.250Z,387.59
2022-07-25T00:54:48.497Z,388.01
2022-07-25T00:59:55.727Z,389.10
2022-07-25T01:05:02.964Z,389.60
2022-07-25T01:10:10.249Z,390.07
2022-07-25T01:15:17.445Z,388.86
2022-07-25T01:20:24.620Z,389.57
2022-07-25T01:25:31.826Z,390.16
2022-07-25T01:30:39.081Z,390.06
2022-07-25T01:35:46.284Z,390.36
2022-07-25T01:40:53.561Z,390.73
2022-07-25T01:46:00.866Z,390.68
2022-07-25T01:51:08.040Z,391.44
2022-07-25T01:56:15.298Z,391.19
2022-07-25T02:01:22.569Z,391.16
2022-07-25T02:06:29.745Z,391.60
2022-07-25T02:11:36.973Z,392.07
2022-07-25T02:16:44.166Z,392.00
2022-07-25T02:21:51.435Z,391.88
2022-07-25T02:26:59.392Z,392.06
2022-07-25T02:32:06.556Z,391.48
2022-07-25T02:37:13.786Z,391.96
2022-07-25T02:42:20.971Z,392.33
2022-07-25T02:47:28.338Z,393.05
2022-07-25T02:52:35.541Z,393.08
2022-07-25T02:57:44.012Z,394.38
2022-07-25T03:02:51.212Z,394.02
2022-07-25T03:07:58.467Z,394.08
2022-07-25T03:13:05.701Z,394.34
2022-07-25T03:18:12.867Z,394.38
2022-07-25T03:23:20.092Z,393.65
2022-07-25T03:28:27.285Z,395.20
2022-07-25T03:33:34.548Z,394.49
2022-07-25T03:38:41.722Z,395.54
2022-07-25T03:43:49.029Z,395.38
2022-07-25T03:48:56.292Z,395.17
2022-07-25T03:54:03.959Z,394.91
2022-07-25T03:59:10.657Z,394.51
2022-07-25T04:04:17.929Z,395.24
2022-07-25T04:09:25.208Z,395.08
2022-07-25T04:14:32.411Z,394.84
2022-07-25T04:19:39.595Z,394.96
2022-07-25T04:24:46.780Z,395.81
2022-07-25T04:29:53.960Z,395.88
2022-07-25T04:35:01.150Z,396.29
2022-07-25T04:40:08.403Z,395.95
2022-07-25T04:45:17.557Z,395.86
2022-07-25T04:50:24.926Z,395.78
2022-07-25T04:55:30.003Z,396.18
2022-07-25T05:00:37.265Z,397.20
2022-07-25T05:05:44.472Z,396.36
2022-07-25T05:10:51.748Z,396.40
2022-07-25T05:15:59.041Z,396.04
2022-07-25T05:21:06.235Z,396.31
2022-07-25T05:26:13.504Z,396.42
2022-07-25T05:31:20.879Z,396.88
2022-07-25T05:36:27.934Z,396.45
2022-07-25T05:41:35.152Z,395.80
2022-07-25T05:46:42.460Z,395.41
2022-07-25T05:51:49.637Z,395.15
2022-07-25T05:56:56.834Z,395.01
2022-07-25T06:02:04.253Z,395.15
2022-07-25T06:07:11.993Z,395.92
2022-07-25T06:12:19.113Z,396.78
2022-07-25T06:17:32.015Z,396.78
2022-07-25T06:22:33.587Z,396.90
2022-07-25T06:27:40.817Z,396.30
2022-07-25T06:32:48.048Z,396.37
2022-07-25T06:37:57.367Z,396.77
2022-07-25T06:43:04.591Z,396.70
2022-07-25T06:48:11.803Z,396.45
2022-07-25T06:53:19.073Z,397.41
2022-07-25T06:58:26.260Z,397.17
2022-07-25T07:03:33.630Z,396.48
2022-07-25T07:08:40.733Z,396.62
2022-07-25T07:13:48.453Z,396.72
2022-07-25T07:18:55.751Z,397.02
2022-07-25T07:24:03.024Z,397.93
2022-07-25T07:29:10.561Z,398.15
2022-07-25T07:34:17.775Z,398.23
2022-07-25T07:39:26.028Z,398.50
2022-07-25T07:44:33.255Z,399.14
2022-07-25T07:49:40.557Z,399.20
2022-07-25T07:54:47.804Z,399.37
2022-07-25T07:59:55.369Z,399.73
2022-07-25T08:05:02.550Z,400.80
2022-07-25T08:10:09.791Z,400.19
2022-07-25T08:15:16.938Z,399.73
2022-07-25T08:20:39.078Z,400.15
2022-07-25T08:25:31.323Z,400.22
2022-07-25T08:30:38.553Z,400.88
2022-07-25T08:35:45.722Z,401.22
2022-07-25T08:40:52.964Z,401.77
2022-07-25T08:46:00.182Z,401.48
2022-07-25T08:51:07.331Z,401.62
2022-07-25T08:56:20.426Z,402.08
2022-07-25T09:01:21.838Z,402.32
2022-07-25T09:06:29.015Z,402.66
2022-07-25T09:11:36.237Z,402.94
2022-07-25T09:16:44.378Z,403.20
2022-07-25T09:21:50.772Z,403.38
2022-07-25T09:26:58.031Z,403.79
2022-07-25T09:32:05.211Z,404.14
2022-07-25T09:37:13.913Z,404.00
2022-07-25T09:42:21.122Z,404.20
2022-07-25T09:47:28.674Z,404.44
2022-07-25T09:52:35.873Z,404.65
2022-07-25T09:57:43.085Z,404.33
2022-07-25T10:02:50.425Z,404.52
2022-07-25T10:07:57.568Z,404.39
2022-07-25T10:13:09.885Z,405.04
2022-07-25T10:18:12.116Z,405.23
2022-07-25T10:23:19.390Z,404.91
2022-07-25T10:28:26.834Z,405.21
2022-07-25T10:33:34.137Z,405.11
2022-07-25T10:38:41.376Z,405.20
2022-07-25T10:43:48.995Z,405.77
2022-07-25T10:48:55.853Z,405.44
2022-07-25T10:54:02.956Z,405.37
2022-07-25T10:59:10.357Z,405.20
2022-07-25T11:04:17.365Z,405.08
2022-07-25T11:09:27.420Z,405.48
2022-07-25T11:14:31.780Z,405.51
2022-07-25T11:19:38.956Z,405.50
2022-07-25T11:24:46.211Z,405.87
2022-07-25T11:29:53.479Z,405.70
2022-07-25T11:35:00.694Z,405.43
2022-07-25T11:40:07.887Z,406.49
2022-07-25T11:45:15.085Z,407.10
2022-07-25T11:50:22.262Z,407.82
2022-07-25T11:55:29.396Z,407.77
2022-07-25T12:00:36.597Z,407.86
2022-07-25T12:05:43.799Z,408.20
2022-07-25T12:10:50.969Z,408.44
2022-07-25T12:15:58.191Z,409.63
2022-07-25T12:21:05.404Z,410.34
2022-07-25T12:26:12.586Z,410.33
2022-07-25T12:31:19.884Z,410.76
2022-07-25T12:36:30.117Z,411.40
2022-07-25T12:41:37.318Z,412.24
2022-07-25T12:46:49.226Z,412.02
2022-07-25T12:51:57.699Z,412.68
2022-07-25T12:56:59.038Z,412.32
2022-07-25T13:02:06.338Z,412.46
2022-07-25T13:07:15.301Z,413.97
2022-07-25T13:12:22.513Z,414.15
2022-07-25T13:17:29.782Z,415.37
2022-07-25T13:22:36.989Z,415.59
2022-07-25T13:27:44.537Z,415.62
2022-07-25T13:32:52.950Z,416.64
2022-07-25T13:38:00.165Z,416.47
2022-07-25T13:43:07.454Z,416.49
2022-07-25T13:48:31.489Z,417.20
2022-07-25T13:53:25.514Z,418.05
2022-07-25T13:58:30.444Z,417.95
2022-07-25T14:03:37.692Z,418.31
2022-07-25T14:08:44.864Z,419.30
2022-07-25T14:13:52.040Z,419.10
2022-07-25T14:19:00.086Z,419.37
2022-07-25T14:24:07.321Z,419.98
2022-07-25T14:29:14.491Z,420.73
2022-07-25T14:34:21.769Z,421.23
2022-07-25T14:39:28.958Z,422.26
2022-07-25T14:44:37.263Z,422.91
2022-07-25T14:49:43.648Z,423.90
2022-07-25T14:54:50.825Z,424.12
2022-07-25T14:59:58.011Z,424.49
2022-07-25T15:05:05.283Z,424.76
2022-07-25T15:10:12.413Z,425.33
2022-07-25T15:15:19.651Z,425.53
2022-07-25T15:20:26.858Z,425.45
2022-07-25T15:26:03.581Z,426.04
2022-07-25T15:30:41.226Z,426.36
2022-07-25T15:35:52.004Z,427.04
2022-07-25T15:41:00.520Z,427.39
2022-07-25T15:46:07.841Z,427.89
2022-07-25T15:51:14.899Z,428.62
2022-07-25T15:56:22.132Z,428.46
2022-07-25T16:01:29.445Z,428.62
2022-07-25T16:06:36.644Z,428.76
2022-07-25T16:11:43.810Z,428.86
2022-07-25T16:16:50.996Z,429.50
2022-07-25T16:21:58.202Z,430.19
2022-07-25T16:27:05.454Z,430.43
2022-07-25T16:32:14.561Z,430.46
2022-07-25T16:37:21.774Z,429.96
2022-07-25T16:42:28.938Z,429.45
2022-07-25T16:47:36.227Z,428.87
2022-07-25T16:52:43.410Z,428.16
2022-07-25T16:57:50.707Z,428.23
2022-07-25T17:02:57.967Z,426.30
2022-07-25T17:08:05.173Z,425.90
2022-07-25T17:13:12.431Z,425.93
2022-07-25T17:18:19.644Z,426.32
2022-07-25T17:23:26.895Z,427.09
2022-07-25T17:28:34.116Z,425.85
2022-07-25T17:33:41.342Z,425.10
2022-07-25T17:38:48.608Z,425.63
2022-07-25T17:43:55.799Z,425.79
2022-07-25T17:49:03.048Z,424.90
2022-07-25T17:54:10.659Z,423.63
2022-07-25T17:59:17.434Z,423.63
2022-07-25T18:04:24.676Z,423.39
2022-07-25T18:09:31.900Z,423.59
2022-07-25T18:14:39.074Z,422.44
2022-07-25T18:19:46.357Z,421.97
2022-07-25T18:24:53.558Z,421.52
2022-07-25T18:30:00.704Z,420.94
2022-07-25T18:35:07.954Z,420.11
2022-07-25T18:40:15.101Z,418.27
2022-07-25T18:45:22.340Z,417.86
2022-07-25T18:50:29.584Z,417.52
2022-07-25T18:55:36.733Z,413.68
2022-07-25T19:00:45.527Z,409.04
2022-07-25T19:05:52.788Z,405.59
2022-07-25T19:11:00.012Z,396.90
2022-07-25T19:16:07.257Z,391.72
2022-07-25T19:21:14.480Z,394.32
2022-07-25T19:26:21.723Z,394.52
2022-07-25T19:31:29.050Z,392.95
2022-07-25T19:36:36.134Z,392.95
2022-07-25T19:41:46.608Z,394.48
2022-07-25T19:46:50.558Z,391.35
2022-07-25T19:51:57.773Z,390.06
2022-07-25T19:57:04.987Z,390.72
2022-07-25T20:02:12.282Z,386.67
2022-07-25T20:07:19.470Z,389.38
2022-07-25T20:12:26.651Z,388.25
2022-07-25T20:17:33.831Z,384.12
2022-07-25T20:22:41.017Z,386.12
2022-07-25T20:27:48.200Z,381.17
2022-07-25T20:32:55.406Z,388.65
2022-07-25T20:38:02.675Z,388.95
2022-07-25T20:43:12.904Z,389.60
2022-07-25T20:48:20.179Z,388.95
2022-07-25T20:53:27.485Z,386.48
2022-07-25T20:58:34.740Z,384.13
2022-07-25T21:03:42.001Z,384.00
2022-07-25T21:08:49.191Z,382.80
2022-07-25T21:13:56.496Z,382.92
2022-07-25T21:19:03.983Z,382.49
2022-07-25T21:24:10.956Z,382.60
2022-07-25T21:29:18.149Z,383.23
2022-07-25T21:34:25.451Z,384.54
2022-07-25T21:39:32.728Z,382.15
2022-07-25T21:44:39.959Z,383.42
2022-07-25T21:49:47.222Z,384.26
2022-07-25T21:54:54.362Z,385.16
2022-07-25T22:00:01.641Z,386.85
2022-07-25T22:05:08.859Z,385.79
2022-07-25T22:10:16.129Z,384.87
2022-07-25T22:15:23.305Z,385.31
2022-07-25T22:20:30.505Z,386.29
2022-07-25T22:25:37.643Z,386.59
2022-07-25T22:30:44.873Z,385.97
2022-07-25T22:35:52.031Z,385.97
2022-07-25T22:40:59.270Z,385.57
2022-07-25T22:46:06.582Z,387.36
2022-07-25T22:51:13.694Z,387.31
2022-07-25T22:56:20.909Z,386.51
2022-07-25T23:01:28.161Z,385.19
2022-07-25T23:06:35.422Z,384.79
2022-07-25T23:11:42.699Z,384.82
2022-07-25T23:16:49.992Z,386.14
2022-07-25T23:21:57.128Z,384.59
2022-07-25T23:27:04.387Z,382.76
2022-07-25T23:32:11.602Z,382.15
2022-07-25T23:37:21.398Z,382.55
2022-07-25T23:42:28.648Z,383.64
2022-07-25T23:47:39.565Z,386.09
2022-07-25T23:52:43.096Z,386.68
2022-07-25T23:57:50.324Z,386.88
